Time;durP1;ratioP1;P1;durP2;ratioP2;P2;SDS_P1;SDS_P2;PMS_P1;PMS_P2;Temp;Humidity;BMP_temperature;BMP_pressure;BME280_temperature;BME280_humidity;BME280_pressure;Samples;Min_cycle;Max_cycle;Signal;HPM_P1;HPM_P2
2023/05/29 00:01:18;;;;;;;11.98;4.68;;;;;;;16.56;66.09;101459.78;4983880;28;20046;-73
2023/05/29 00:03:44;;;;;;;9.18;4.35;;;;;;;16.50;66.58;101454.69;4985512;28;20029;-73
2023/05/29 00:06:10;;;;;;;9.15;4.68;;;;;;;16.41;66.60;101463.59;4985098;28;20045;-74
2023/05/29 00:08:35;;;;;;;9.68;4.40;;;;;;;16.38;67.30;101463.66;4981556;28;20046;-72
2023/05/29 00:11:01;;;;;;;10.40;4.40;;;;;;;16.39;66.99;101462.75;4975226;28;20090;-73
2023/05/29 00:13:26;;;;;;;9.25;4.18;;;;;;;16.32;67.29;101461.19;4985477;28;20029;-73
2023/05/29 00:15:52;;;;;;;8.10;3.97;;;;;;;16.26;67.61;101466.53;4980453;28;20042;-72
2023/05/29 00:18:17;;;;;;;7.32;3.78;;;;;;;16.18;67.77;101456.22;4982196;28;20891;-73
2023/05/29 00:20:43;;;;;;;7.85;3.83;;;;;;;16.14;68.21;101461.53;4979021;28;20042;-72
2023/05/29 00:23:09;;;;;;;7.95;4.05;;;;;;;16.07;67.89;101460.81;4979888;28;20050;-74
2023/05/29 00:25:35;;;;;;;11.15;4.30;;;;;;;16.02;68.16;101459.19;4985351;28;20049;-61
2023/05/29 00:28:00;;;;;;;8.50;4.72;;;;;;;15.98;68.21;101465.34;4977195;28;20030;-62
2023/05/29 00:30:26;;;;;;;8.38;4.43;;;;;;;15.93;68.70;101460.22;4984107;28;20041;-62
2023/05/29 00:32:54;;;;;;;8.55;4.57;;;;;;;15.90;68.92;101469.84;4981082;28;20081;-61
2023/05/29 00:35:20;;;;;;;6.75;3.95;;;;;;;15.86;68.91;101479.47;4980371;28;20097;-62
2023/05/29 00:37:45;;;;;;;10.15;4.32;;;;;;;15.84;69.54;101473.44;4976493;28;20043;-61
2023/05/29 00:40:11;;;;;;;9.85;4.65;;;;;;;15.81;69.70;101476.09;4975791;28;20054;-62
2023/05/29 00:42:37;;;;;;;7.50;3.97;;;;;;;15.78;69.45;101472.69;4980632;28;20048;-61
2023/05/29 00:45:02;;;;;;;9.40;4.75;;;;;;;15.74;69.78;101469.25;4983405;28;20037;-62
2023/05/29 00:47:28;;;;;;;8.57;4.68;;;;;;;15.70;70.19;101468.44;4980679;28;20403;-62
2023/05/29 00:49:56;;;;;;;11.18;4.13;;;;;;;15.67;70.22;101475.50;4980046;28;20496;-61
2023/05/29 00:52:21;;;;;;;8.63;4.28;;;;;;;15.64;70.54;101468.56;5008734;28;20048;-61
2023/05/29 00:54:47;;;;;;;9.55;3.88;;;;;;;15.61;70.72;101473.78;4978280;28;20030;-62
2023/05/29 00:57:14;;;;;;;8.63;3.90;;;;;;;15.58;70.72;101481.66;5012488;28;20040;-62
2023/05/29 00:59:41;;;;;;;8.38;4.18;;;;;;;15.55;71.35;101468.69;4978934;28;20070;-61
2023/05/29 01:02:06;;;;;;;10.45;4.65;;;;;;;15.53;71.19;101474.81;4979315;28;20090;-62
2023/05/29 01:04:35;;;;;;;9.68;4.40;;;;;;;15.46;71.58;101470.63;4982221;28;20499;-62
2023/05/29 01:07:02;;;;;;;9.65;4.47;;;;;;;15.40;71.75;101463.78;4980290;28;20045;-62
2023/05/29 01:09:29;;;;;;;10.27;4.35;;;;;;;15.43;72.11;101462.84;4979277;28;20034;-61
2023/05/29 01:12:13;;;;;;;9.57;4.15;;;;;;;15.40;72.33;101460.31;4979436;28;20030;-62
2023/05/29 01:15:01;;;;;;;10.17;4.40;;;;;;;15.35;72.73;101469.91;4981931;28;20034;-62
2023/05/29 01:17:42;;;;;;;8.27;4.25;;;;;;;15.31;72.76;101471.75;4981780;28;20859;-61
2023/05/29 01:20:36;;;;;;;8.90;4.05;;;;;;;15.29;72.78;101463.06;4976075;28;20038;-61
2023/05/29 01:23:15;;;;;;;8.00;4.03;;;;;;;15.27;72.88;101470.06;4975925;28;20034;-62
2023/05/29 01:25:56;;;;;;;8.52;4.05;;;;;;;15.25;73.24;101477.03;4981671;28;20053;-61
2023/05/29 01:28:26;;;;;;;7.07;4.18;;;;;;;15.23;73.60;101478.78;4977424;28;20034;-61
2023/05/29 01:30:54;;;;;;;9.05;4.53;;;;;;;15.20;73.31;101479.72;4985124;28;20030;-61
2023/05/29 01:33:19;;;;;;;7.05;3.92;;;;;;;15.18;73.56;101471.06;4979618;28;20070;-61
2023/05/29 01:35:44;;;;;;;11.90;4.60;;;;;;;15.20;73.43;101476.25;4978855;28;20557;-61
2023/05/29 01:38:10;;;;;;;10.85;4.82;;;;;;;15.18;73.77;101473.66;4982311;28;20478;-61
2023/05/29 01:40:35;;;;;;;9.38;4.38;;;;;;;15.17;73.38;101473.69;4988724;28;20042;-61
2023/05/29 01:43:02;;;;;;;9.95;4.65;;;;;;;15.11;73.48;101474.63;4984511;28;20030;-61
2023/05/29 01:45:28;;;;;;;8.25;4.43;;;;;;;15.07;73.75;101478.19;4990204;28;20040;-61
2023/05/29 01:47:54;;;;;;;10.93;4.45;;;;;;;15.09;74.01;101473.81;4984941;28;20042;-61
2023/05/29 01:50:22;;;;;;;9.50;4.55;;;;;;;15.03;73.99;101479.13;4988083;28;20062;-72
2023/05/29 01:52:47;;;;;;;8.98;4.68;;;;;;;15.00;74.04;101475.69;4985176;28;20039;-72
2023/05/29 01:55:13;;;;;;;8.05;4.43;;;;;;;14.99;74.01;101477.44;4986067;28;20041;-72
2023/05/29 01:57:40;;;;;;;10.30;4.57;;;;;;;15.01;74.22;101480.03;4985222;28;20411;-72
2023/05/29 02:00:08;;;;;;;14.55;5.28;;;;;;;14.97;74.04;101479.22;4983787;28;20056;-72
2023/05/29 02:02:40;;;;;;;8.85;4.28;;;;;;;14.95;74.29;101488.78;4986565;28;20049;-72
2023/05/29 02:05:08;;;;;;;13.02;4.82;;;;;;;14.94;73.96;101488.81;4982477;28;20035;-72
2023/05/29 02:07:39;;;;;;;12.27;4.88;;;;;;;14.93;74.40;101492.31;4980744;28;20077;-72
2023/05/29 02:10:05;;;;;;;8.00;4.20;;;;;;;14.87;74.27;101489.78;4985520;28;20137;-71
2023/05/29 02:12:30;;;;;;;10.48;4.22;;;;;;;14.85;74.71;101497.59;4987036;28;20038;-72
2023/05/29 02:14:56;;;;;;;7.47;4.30;;;;;;;14.80;74.64;101496.81;4986671;28;20045;-72
2023/05/29 02:17:22;;;;;;;9.43;4.15;;;;;;;14.76;74.93;101499.47;4991994;28;20092;-72
2023/05/29 02:19:47;;;;;;;11.20;4.90;;;;;;;14.74;74.50;101501.25;4986135;28;20038;-71
2023/05/29 02:22:13;;;;;;;10.45;4.55;;;;;;;14.72;74.49;101503.88;4982544;28;20027;-71
2023/05/29 02:24:38;;;;;;;12.02;4.40;;;;;;;14.64;74.77;101508.31;4987189;28;20054;-70
2023/05/29 02:27:04;;;;;;;8.13;4.53;;;;;;;14.61;74.95;101516.16;4985519;28;20066;-71
2023/05/29 02:29:29;;;;;;;12.30;4.28;;;;;;;14.57;74.98;101517.91;4992477;28;20033;-72
2023/05/29 02:31:55;;;;;;;9.90;4.20;;;;;;;14.52;75.29;101514.53;4984644;28;20047;-71
2023/05/29 02:34:23;;;;;;;10.35;4.38;;;;;;;14.48;75.16;101525.00;4990336;28;20053;-71
2023/05/29 02:36:49;;;;;;;7.43;4.03;;;;;;;14.43;75.27;101529.38;4984904;28;20030;-71
2023/05/29 02:39:14;;;;;;;9.82;4.55;;;;;;;14.37;75.28;101524.22;4988477;28;20447;-70
2023/05/29 02:41:40;;;;;;;5.55;3.88;;;;;;;14.32;75.19;101520.81;4990128;28;20045;-71
2023/05/29 02:44:05;;;;;;;8.63;3.95;;;;;;;14.28;75.05;101522.59;4987532;28;20762;-70
2023/05/29 02:46:31;;;;;;;6.88;3.95;;;;;;;14.23;75.13;101531.31;4994347;28;20042;-71
2023/05/29 02:48:56;;;;;;;7.35;4.05;;;;;;;14.17;75.42;101524.47;4984243;28;20035;-69
2023/05/29 02:51:21;;;;;;;11.57;4.63;;;;;;;14.13;75.15;101530.56;4989208;28;20523;-71
2023/05/29 02:53:48;;;;;;;8.63;3.70;;;;;;;14.10;75.15;101541.00;4989230;28;20181;-71
2023/05/29 02:56:15;;;;;;;5.90;4.30;;;;;;;14.03;75.23;101535.00;4985959;28;20499;-71
2023/05/29 02:58:41;;;;;;;9.30;4.18;;;;;;;13.98;75.16;101535.91;4986434;28;20176;-71
2023/05/29 03:01:06;;;;;;;6.82;4.07;;;;;;;13.99;74.74;101537.66;4986621;28;20030;-70
2023/05/29 03:03:32;;;;;;;8.45;4.45;;;;;;;13.94;74.89;101534.25;4987418;28;20069;-70
2023/05/29 03:05:57;;;;;;;8.48;3.88;;;;;;;13.88;74.84;101535.16;4987951;28;20103;-70
2023/05/29 03:08:23;;;;;;;11.63;4.15;;;;;;;13.84;74.99;101541.25;4986852;28;20042;-71
2023/05/29 03:10:49;;;;;;;7.65;4.15;;;;;;;13.77;75.37;101543.94;4974108;28;20073;-71
2023/05/29 03:13:14;;;;;;;9.93;4.05;;;;;;;13.74;75.46;101541.38;4986123;28;20038;-70
2023/05/29 03:15:40;;;;;;;8.07;4.05;;;;;;;13.67;75.35;101547.47;4985372;28;20549;-70
2023/05/29 03:18:05;;;;;;;8.13;4.47;;;;;;;13.66;75.19;101543.16;4982317;28;20062;-71
2023/05/29 03:20:30;;;;;;;11.77;4.18;;;;;;;13.64;74.98;101542.31;4984926;28;20070;-71
2023/05/29 03:22:56;;;;;;;9.32;4.03;;;;;;;13.63;74.98;101548.38;4989307;28;20088;-71
2023/05/29 03:25:22;;;;;;;8.25;4.05;;;;;;;13.61;75.11;101552.72;4979999;28;20041;-71
2023/05/29 03:27:47;;;;;;;12.13;4.35;;;;;;;13.55;75.18;101561.44;4987565;28;20038;-71
2023/05/29 03:30:13;;;;;;;7.50;4.07;;;;;;;13.52;75.23;101564.06;4984190;28;20042;-63
2023/05/29 03:32:38;;;;;;;9.05;4.72;;;;;;;13.47;75.63;101563.25;4981632;28;20377;-64
2023/05/29 03:35:04;;;;;;;8.55;3.80;;;;;;;13.42;75.55;101567.56;4981396;28;20408;-63
2023/05/29 03:37:30;;;;;;;8.55;4.10;;;;;;;13.42;75.27;101564.97;4988475;28;20749;-63
2023/05/29 03:39:55;;;;;;;7.93;4.35;;;;;;;13.39;75.53;101571.06;4980742;28;20074;-64
2023/05/29 03:42:21;;;;;;;12.20;4.43;;;;;;;13.33;76.02;101578.03;4984710;28;20044;-63
2023/05/29 03:44:46;;;;;;;8.25;3.88;;;;;;;13.34;75.62;101575.44;4984732;28;20155;-63
2023/05/29 03:47:12;;;;;;;8.45;4.40;;;;;;;13.31;75.70;101575.47;4981856;28;20038;-63
2023/05/29 03:49:37;;;;;;;6.72;3.92;;;;;;;13.29;75.83;101574.63;4977603;28;20576;-63
2023/05/29 03:52:03;;;;;;;10.52;4.78;;;;;;;13.29;75.86;101576.34;4981300;28;20403;-64
2023/05/29 03:54:29;;;;;;;8.65;3.90;;;;;;;13.30;75.84;101576.31;4986109;28;20042;-63
2023/05/29 03:56:54;;;;;;;6.25;4.15;;;;;;;13.29;75.88;101585.00;4981133;28;20045;-63
2023/05/29 03:59:20;;;;;;;8.35;3.72;;;;;;;13.30;75.82;101593.63;4981401;28;20467;-64
2023/05/29 04:01:45;;;;;;;11.13;4.35;;;;;;;13.30;76.06;101601.41;4980445;28;20054;-64
2023/05/29 04:04:10;;;;;;;7.68;4.10;;;;;;;13.29;76.07;101602.31;4980089;28;20038;-64
2023/05/29 04:06:38;;;;;;;9.88;4.18;;;;;;;13.28;76.70;101598.84;4980742;28;20034;-63
2023/05/29 04:09:06;;;;;;;8.73;4.40;;;;;;;13.31;76.05;101592.75;4983876;28;20805;-63
2023/05/29 04:11:35;;;;;;;14.73;5.03;;;;;;;13.28;76.00;101592.78;4979491;28;20033;-63
2023/05/29 04:14:01;;;;;;;7.80;4.18;;;;;;;13.29;76.14;101595.38;4987954;28;20053;-64
2023/05/29 04:16:28;;;;;;;14.15;4.75;;;;;;;13.28;76.16;101595.38;4980866;28;20046;-63
2023/05/29 04:18:54;;;;;;;8.25;4.03;;;;;;;13.27;76.25;101597.09;4981214;28;20790;-64
2023/05/29 04:21:19;;;;;;;13.30;4.10;;;;;;;13.29;76.11;101602.31;4980079;28;20049;-61
2023/05/29 04:23:44;;;;;;;10.02;4.07;;;;;;;13.30;75.85;101601.41;4980093;28;20038;-62
2023/05/29 04:26:10;;;;;;;12.05;4.55;;;;;;;13.31;75.78;101604.03;4981380;28;20149;-62
2023/05/29 04:28:37;;;;;;;8.43;3.83;;;;;;;13.31;75.70;101609.22;5006057;28;20105;-62
2023/05/29 04:31:03;;;;;;;7.78;4.10;;;;;;;13.31;75.68;101609.22;4983057;28;20030;-61
2023/05/29 04:33:29;;;;;;;10.20;4.32;;;;;;;13.30;75.48;101606.59;4978917;28;20089;-61
2023/05/29 04:35:54;;;;;;;9.60;4.38;;;;;;;13.31;75.30;101614.41;4980882;28;20471;-61
2023/05/29 04:38:24;;;;;;;7.95;3.83;;;;;;;13.36;75.72;101616.97;4980157;28;20034;-62
2023/05/29 04:40:51;;;;;;;9.75;4.63;;;;;;;13.38;75.54;101610.91;4980209;28;20069;-62
2023/05/29 04:43:16;;;;;;;10.85;4.63;;;;;;;13.42;75.42;101614.31;4974457;28;20034;-61
2023/05/29 04:45:42;;;;;;;8.02;4.13;;;;;;;13.45;75.19;101615.19;4983475;28;20096;-61
2023/05/29 04:48:08;;;;;;;16.58;4.95;;;;;;;13.47;75.51;101616.00;4982684;28;20126;-62
2023/05/29 04:50:35;;;;;;;12.18;4.95;;;;;;;13.47;75.00;101616.00;4980420;28;20034;-61
2023/05/29 04:53:00;;;;;;;14.15;4.57;;;;;;;13.50;74.74;101618.59;4977218;28;20149;-61
2023/05/29 04:55:27;;;;;;;12.05;4.78;;;;;;;13.55;74.45;101610.78;4985206;28;20123;-61
2023/05/29 04:57:52;;;;;;;11.32;4.93;;;;;;;13.55;74.69;101611.66;4981618;28;20049;-62
2023/05/29 05:00:18;;;;;;;12.20;4.97;;;;;;;13.55;74.86;101624.63;4980441;28;20027;-61
2023/05/29 05:02:44;;;;;;;10.90;4.85;;;;;;;13.58;74.54;101626.34;4979542;28;20046;-61
2023/05/29 05:05:10;;;;;;;9.77;4.70;;;;;;;13.61;74.33;101633.25;4982518;28;20045;-62
2023/05/29 05:07:36;;;;;;;11.38;4.60;;;;;;;13.64;74.27;101628.91;4980513;28;20412;-61
2023/05/29 05:10:03;;;;;;;10.93;4.75;;;;;;;13.64;73.75;101618.50;4978613;28;20061;-62
2023/05/29 05:12:28;;;;;;;9.32;4.90;;;;;;;13.67;73.39;101625.41;4983709;28;20370;-61
2023/05/29 05:14:54;;;;;;;13.50;6.05;;;;;;;13.71;73.39;101629.72;5014110;28;20570;-61
2023/05/29 05:17:20;;;;;;;9.98;4.53;;;;;;;13.75;73.51;101626.22;4985904;28;20042;-61
2023/05/29 05:19:45;;;;;;;15.88;4.82;;;;;;;13.79;73.35;101625.31;4979863;28;20026;-62
2023/05/29 05:22:11;;;;;;;13.02;5.28;;;;;;;13.84;73.17;101629.59;4977854;28;20027;-61
2023/05/29 05:24:36;;;;;;;12.52;5.32;;;;;;;13.84;72.82;101633.94;4978241;28;20141;-61
2023/05/29 05:27:02;;;;;;;13.80;5.00;;;;;;;13.81;72.56;101628.78;4975582;28;20038;-62
2023/05/29 05:29:27;;;;;;;9.80;5.65;;;;;;;13.79;72.72;101625.31;4974839;28;20062;-62
2023/05/29 05:31:52;;;;;;;11.68;5.50;;;;;;;13.74;72.98;101632.31;4965368;28;20190;-61
2023/05/29 05:34:18;;;;;;;13.23;4.82;;;;;;;13.78;73.09;101637.44;4967001;28;20030;-61
2023/05/29 05:36:43;;;;;;;10.35;4.55;;;;;;;13.85;73.39;101641.75;4963093;28;20034;-61
2023/05/29 05:39:09;;;;;;;12.57;5.50;;;;;;;13.91;73.10;101636.50;4968894;28;20043;-61
2023/05/29 05:41:35;;;;;;;12.35;4.63;;;;;;;13.94;72.24;101633.88;4965902;28;20036;-61
2023/05/29 05:44:00;;;;;;;14.35;5.03;;;;;;;13.94;72.45;101636.47;4977396;28;20058;-61
2023/05/29 05:46:26;;;;;;;15.32;5.45;;;;;;;13.97;72.17;101643.38;4981487;28;20149;-60
2023/05/29 05:48:51;;;;;;;11.18;4.90;;;;;;;14.04;72.32;101642.44;4980279;28;20026;-61
2023/05/29 05:51:17;;;;;;;15.25;6.00;;;;;;;14.15;72.20;101642.34;4972057;28;20034;-61
2023/05/29 05:53:43;;;;;;;10.68;5.32;;;;;;;14.19;71.73;101631.06;4971137;28;20053;-61
2023/05/29 05:56:08;;;;;;;13.18;5.47;;;;;;;14.18;71.32;101630.19;4976638;28;20477;-61
2023/05/29 05:58:34;;;;;;;17.08;6.07;;;;;;;14.20;71.31;101625.84;4973779;28;20050;-62
2023/05/29 06:01:00;;;;;;;12.45;5.45;;;;;;;14.28;71.45;101631.81;4968956;28;20043;-63
2023/05/29 06:03:26;;;;;;;18.05;5.57;;;;;;;14.36;71.15;101623.94;4971606;28;20034;-61
2023/05/29 06:05:54;;;;;;;15.77;6.03;;;;;;;14.19;70.96;101639.69;4975959;28;20177;-61
2023/05/29 06:08:19;;;;;;;9.82;4.65;;;;;;;14.24;70.92;101637.06;4970357;28;20066;-61
2023/05/29 06:10:44;;;;;;;12.65;5.18;;;;;;;14.29;70.97;101641.34;4972954;28;20130;-61
2023/05/29 06:13:10;;;;;;;15.65;6.03;;;;;;;14.31;70.61;101634.38;4977317;28;20210;-62
2023/05/29 06:15:35;;;;;;;14.00;5.10;;;;;;;14.46;70.60;101639.47;4978927;28;20034;-61
2023/05/29 06:18:01;;;;;;;15.57;5.30;;;;;;;14.51;70.89;101645.47;4973110;28;20633;-61
2023/05/29 06:20:26;;;;;;;12.77;5.88;;;;;;;14.56;70.68;101648.91;4970717;28;20038;-61
2023/05/29 06:22:51;;;;;;;14.57;5.72;;;;;;;14.65;70.28;101650.56;4973328;28;20038;-61
2023/05/29 06:25:19;;;;;;;14.43;5.38;;;;;;;14.76;70.00;101643.47;4973935;28;20137;-61
2023/05/29 06:27:44;;;;;;;11.77;5.38;;;;;;;14.81;69.44;101643.44;4977480;28;20036;-61
2023/05/29 06:30:11;;;;;;;15.10;5.57;;;;;;;14.84;69.29;101639.03;4975492;28;20034;-61
2023/05/29 06:32:36;;;;;;;17.48;6.43;;;;;;;14.85;69.23;101642.50;4979050;28;20112;-61
2023/05/29 06:35:02;;;;;;;15.80;6.30;;;;;;;14.83;69.52;101652.06;4977229;28;20033;-61
2023/05/29 06:37:27;;;;;;;15.00;5.70;;;;;;;14.87;69.45;101640.75;4973663;28;20057;-61
2023/05/29 06:39:53;;;;;;;12.35;5.00;;;;;;;14.99;69.18;101643.22;4975712;28;20033;-61
2023/05/29 06:42:18;;;;;;;12.48;5.35;;;;;;;14.96;68.39;101641.50;4976671;28;20451;-61
2023/05/29 06:44:43;;;;;;;13.40;5.50;;;;;;;14.92;69.25;101655.44;4973683;28;20081;-61
2023/05/29 06:47:09;;;;;;;17.17;6.38;;;;;;;14.99;69.24;101654.47;4974341;28;20504;-61
2023/05/29 06:49:34;;;;;;;10.95;5.57;;;;;;;15.06;68.69;101645.72;4967995;28;20042;-61
2023/05/29 06:52:00;;;;;;;14.98;5.75;;;;;;;15.14;68.87;101645.59;4973322;28;20113;-61
2023/05/29 06:54:25;;;;;;;12.13;5.45;;;;;;;15.27;68.73;101647.16;4976609;28;20165;-60
2023/05/29 06:56:50;;;;;;;9.20;4.72;;;;;;;15.04;68.58;101641.41;4976064;28;20120;-60
2023/05/29 06:59:16;;;;;;;13.57;6.13;;;;;;;15.09;68.77;101650.88;4974065;28;20073;-61
2023/05/29 07:01:41;;;;;;;16.75;5.68;;;;;;;15.14;68.77;101650.81;4982518;28;20137;-61
2023/05/29 07:04:07;;;;;;;13.38;6.43;;;;;;;15.29;68.24;101647.13;4984567;28;20060;-72
2023/05/29 07:06:33;;;;;;;10.40;5.57;;;;;;;15.31;67.84;101633.22;4988115;28;20030;-71
2023/05/29 07:08:59;;;;;;;14.98;5.78;;;;;;;15.35;69.06;101654.88;4976710;28;20463;-72
2023/05/29 07:11:26;;;;;;;11.70;6.00;;;;;;;15.38;67.62;101637.47;4978027;28;20034;-71
2023/05/29 07:13:53;;;;;;;14.52;5.53;;;;;;;15.43;67.83;101640.00;4980902;28;20066;-74
2023/05/29 07:16:18;;;;;;;19.30;6.90;;;;;;;15.52;67.82;101645.94;4978467;28;20069;-73
2023/05/29 07:18:43;;;;;;;14.77;5.90;;;;;;;15.58;67.37;101642.41;4976067;28;20117;-74
2023/05/29 07:21:10;;;;;;;13.40;5.38;;;;;;;15.66;67.54;101644.03;4976349;28;20451;-74
2023/05/29 07:23:35;;;;;;;17.13;6.35;;;;;;;15.72;67.01;101630.91;4976012;28;20093;-73
2023/05/29 07:26:01;;;;;;;14.35;5.50;;;;;;;15.73;67.23;101645.66;4979958;28;20495;-73
2023/05/29 07:28:26;;;;;;;17.95;6.32;;;;;;;15.67;67.53;101648.34;4974914;28;20052;-73
2023/05/29 07:30:52;;;;;;;12.73;5.72;;;;;;;15.76;67.09;101643.00;4975051;28;20030;-73
2023/05/29 07:33:17;;;;;;;14.43;5.70;;;;;;;15.86;66.20;101630.69;4975206;28;20054;-73
2023/05/29 07:35:42;;;;;;;13.40;5.70;;;;;;;16.01;66.03;101624.34;4975795;28;20042;-73
2023/05/29 07:38:08;;;;;;;15.80;5.55;;;;;;;16.12;66.02;101627.63;4973368;28;20408;-73
2023/05/29 07:40:33;;;;;;;10.02;5.38;;;;;;;16.11;65.70;101629.41;4977364;28;20046;-72
2023/05/29 07:42:58;;;;;;;17.70;6.13;;;;;;;16.18;65.90;101633.59;4972917;28;20846;-73
2023/05/29 07:45:24;;;;;;;11.48;5.22;;;;;;;16.43;65.46;101617.50;4970967;28;20041;-72
2023/05/29 07:47:49;;;;;;;13.52;5.85;;;;;;;16.50;64.58;101608.69;4980784;28;20129;-73
2023/05/29 07:50:15;;;;;;;17.58;6.10;;;;;;;16.55;63.89;101602.47;4977049;28;20077;-74
2023/05/29 07:52:43;;;;;;;14.15;5.95;;;;;;;16.59;64.15;101621.56;4977353;28;20038;-73
2023/05/29 07:55:09;;;;;;;15.32;5.13;;;;;;;16.55;64.18;101630.31;4976773;28;20061;-73
2023/05/29 07:57:35;;;;;;;11.05;5.13;;;;;;;16.61;64.02;101612.81;4970241;28;20105;-73
2023/05/29 08:00:01;;;;;;;16.02;6.22;;;;;;;16.56;64.38;101634.66;4972806;28;20129;-73
2023/05/29 08:02:27;;;;;;;14.68;5.47;;;;;;;16.56;64.22;101630.28;4979061;28;20554;-74
2023/05/29 08:04:52;;;;;;;17.30;5.18;;;;;;;16.74;64.46;101623.88;4981909;28;20046;-72
2023/05/29 08:07:17;;;;;;;14.60;5.32;;;;;;;16.85;63.32;101620.19;4984368;28;20472;-73
2023/05/29 08:09:43;;;;;;;15.02;5.65;;;;;;;17.06;62.98;101612.78;4987909;28;20052;-73
2023/05/29 08:12:08;;;;;;;15.40;5.57;;;;;;;17.04;63.76;101625.03;4977715;28;20046;-73
2023/05/29 08:14:33;;;;;;;13.45;5.50;;;;;;;17.23;63.36;101621.09;4985923;28;20591;-72
2023/05/29 08:16:59;;;;;;;15.27;5.00;;;;;;;17.34;62.59;101612.13;4982567;28;20073;-73
2023/05/29 08:19:24;;;;;;;12.82;5.50;;;;;;;17.37;61.55;101591.16;5013131;28;20038;-73
2023/05/29 08:21:50;;;;;;;14.27;5.22;;;;;;;17.44;61.17;101594.47;4981862;28;20041;-73
2023/05/29 08:24:15;;;;;;;13.27;5.07;;;;;;;17.39;61.09;101594.56;4981385;28;20038;-73
2023/05/29 08:26:41;;;;;;;12.45;4.82;;;;;;;17.51;60.51;101588.22;4981490;28;20940;-75
2023/05/29 08:29:06;;;;;;;13.90;5.38;;;;;;;17.50;60.21;101586.50;4986263;28;20049;-74
2023/05/29 08:31:32;;;;;;;11.00;5.03;;;;;;;17.58;60.11;101583.69;4992074;28;20897;-73
2023/05/29 08:33:57;;;;;;;12.43;4.97;;;;;;;17.57;60.17;101579.38;4985164;28;20102;-73
2023/05/29 08:36:23;;;;;;;13.95;4.72;;;;;;;17.51;59.66;101579.53;4984906;28;20029;-72
2023/05/29 08:38:49;;;;;;;13.88;4.93;;;;;;;17.68;59.94;101585.19;4980008;28;20121;-71
2023/05/29 08:41:24;;;;;;;10.25;4.18;;;;;;;17.81;58.93;101563.91;4983273;28;20035;-74
2023/05/29 08:43:50;;;;;;;13.48;4.50;;;;;;;17.97;58.87;101570.53;4986979;28;20521;-72
2023/05/29 08:46:18;;;;;;;14.55;4.18;;;;;;;17.86;59.45;101571.69;4982683;28;20770;-73
2023/05/29 08:48:47;;;;;;;15.07;4.28;;;;;;;18.04;58.42;101565.13;4980606;28;20147;-74
2023/05/29 08:51:13;;;;;;;14.77;4.43;;;;;;;18.21;58.60;101566.41;4979740;28;20548;-75
2023/05/29 08:53:40;;;;;;;13.68;4.30;;;;;;;18.44;58.04;101555.28;4977333;28;20120;-74
2023/05/29 08:56:05;;;;;;;13.57;4.35;;;;;;;18.43;57.35;101554.41;4985054;28;20034;-74
2023/05/29 08:58:32;;;;;;;10.10;4.40;;;;;;;18.44;57.06;101550.06;4986425;28;20743;-74
2023/05/29 09:00:57;;;;;;;13.50;4.55;;;;;;;18.38;57.00;101552.84;4980576;28;20030;-73
2023/05/29 09:03:23;;;;;;;11.40;4.03;;;;;;;18.70;57.40;101572.88;4986556;28;20021;-75
2023/05/29 09:05:48;;;;;;;14.70;4.35;;;;;;;18.68;56.40;101546.72;4985111;28;20507;-73
2023/05/29 09:08:14;;;;;;;11.75;4.15;;;;;;;18.79;55.78;101549.06;4980737;28;20473;-75
2023/05/29 09:10:44;;;;;;;11.98;4.63;;;;;;;18.69;55.53;101544.97;4977701;28;20046;-73
2023/05/29 09:13:11;;;;;;;10.82;4.65;;;;;;;18.75;55.54;101548.28;4987506;28;20460;-74
2023/05/29 09:15:39;;;;;;;11.65;4.65;;;;;;;18.86;55.62;101543.59;4986097;28;20053;-73
2023/05/29 09:18:05;;;;;;;10.68;5.13;;;;;;;18.98;55.60;101561.56;4982192;28;20039;-74
2023/05/29 09:20:32;;;;;;;16.20;4.78;;;;;;;18.96;55.57;101555.53;4982626;28;20539;-75
2023/05/29 09:22:57;;;;;;;15.15;4.40;;;;;;;19.01;54.78;101532.66;5001752;28;20073;-75
2023/05/29 09:25:27;;;;;;;11.70;4.70;;;;;;;19.12;54.67;101534.94;4986398;28;20038;-75
2023/05/29 09:28:05;;;;;;;15.40;5.00;;;;;;;19.18;54.83;101539.13;4991154;28;20040;-74
2023/05/29 09:30:43;;;;;;;11.57;3.80;;;;;;;19.28;54.92;101536.19;4984663;28;20049;-74
2023/05/29 09:33:10;;;;;;;15.80;4.68;;;;;;;19.57;54.38;101541.31;4988704;28;20042;-72
2023/05/29 09:35:44;;;;;;;13.77;4.47;;;;;;;19.58;53.74;101536.94;4982468;28;20185;-71
2023/05/29 09:38:12;;;;;;;12.63;4.93;;;;;;;19.68;53.77;101540.13;4984544;28;20069;-72
2023/05/29 09:40:40;;;;;;;11.50;4.55;;;;;;;19.77;52.88;101537.19;4984567;28;20084;-74
2023/05/29 09:43:16;;;;;;;13.43;4.45;;;;;;;19.83;53.06;101529.16;4983398;28;20039;-71
2023/05/29 09:45:47;;;;;;;14.65;4.10;;;;;;;19.80;52.16;101516.97;4981956;28;20030;-72
2023/05/29 09:48:15;;;;;;;12.60;4.28;;;;;;;19.84;52.47;101526.47;4981880;28;20042;-70
2023/05/29 09:50:44;;;;;;;14.30;4.47;;;;;;;19.93;53.02;101534.00;4981385;28;20089;-72
2023/05/29 09:53:20;;;;;;;9.90;4.43;;;;;;;20.13;51.95;101523.66;4981802;28;20094;-74
2023/05/29 09:55:47;;;;;;;11.57;4.05;;;;;;;20.23;51.54;101502.34;4980340;28;20038;-75
2023/05/29 09:58:13;;;;;;;9.63;3.88;;;;;;;20.47;52.76;101535.59;4980925;28;20136;-72
2023/05/29 10:00:41;;;;;;;12.43;4.30;;;;;;;20.57;51.11;101505.44;4984894;28;20026;-72
2023/05/29 10:03:06;;;;;;;11.00;4.03;;;;;;;20.64;50.68;101509.53;4985450;28;20049;-72
2023/05/29 10:05:31;;;;;;;12.18;4.07;;;;;;;20.68;51.85;101535.66;4982671;28;20486;-72
2023/05/29 10:08:01;;;;;;;11.75;4.63;;;;;;;20.73;50.76;101509.22;4989767;28;20038;-73
2023/05/29 10:10:27;;;;;;;10.10;4.00;;;;;;;20.74;50.60;101507.44;4978631;28;20043;-72
2023/05/29 10:12:53;;;;;;;12.77;3.83;;;;;;;20.93;50.54;101504.03;4990701;28;20470;-71
2023/05/29 10:15:19;;;;;;;14.07;4.85;;;;;;;20.76;49.82;101495.09;4983854;28;20096;-72
2023/05/29 10:18:04;;;;;;;7.78;3.67;;;;;;;20.82;49.84;101506.22;4983183;28;20034;-71
2023/05/29 10:20:33;;;;;;;13.13;3.80;;;;;;;20.70;51.00;101530.34;4982869;28;20036;-72
2023/05/29 10:23:01;;;;;;;9.68;3.72;;;;;;;20.98;49.89;101506.50;4986605;28;20529;-73
2023/05/29 10:25:30;;;;;;;14.30;4.13;;;;;;;21.15;49.30;101504.06;4980675;28;20066;-72
2023/05/29 10:27:57;;;;;;;11.05;3.97;;;;;;;21.39;48.96;101504.81;4974666;28;20117;-70
2023/05/29 10:30:52;;;;;;;10.90;4.55;;;;;;;21.34;49.74;101518.19;4988924;28;20565;-73
2023/05/29 10:33:40;;;;;;;13.57;4.57;;;;;;;21.13;49.33;101501.50;4984711;28;20046;-72
2023/05/29 10:36:17;;;;;;;8.50;3.40;;;;;;;21.32;49.67;101522.63;4983533;28;20054;-73
2023/05/29 10:38:47;;;;;;;8.80;3.85;;;;;;;21.64;49.36;101510.81;4995973;28;20053;-73
2023/05/29 10:41:27;;;;;;;14.55;3.95;;;;;;;21.87;48.79;101510.69;4989810;28;20046;-72
2023/05/29 10:44:03;;;;;;;11.30;3.15;;;;;;;21.97;48.15;101500.63;4982851;28;20133;-73
2023/05/29 10:46:49;;;;;;;11.40;4.10;;;;;;;21.94;47.64;101484.97;4991268;28;20073;-73
2023/05/29 10:49:16;;;;;;;13.95;4.20;;;;;;;22.05;47.60;101480.06;4977886;28;20054;-72
2023/05/29 10:51:42;;;;;;;12.30;3.80;;;;;;;22.02;47.97;101482.84;4985954;28;20105;-72
2023/05/29 10:54:07;;;;;;;12.45;4.28;;;;;;;22.22;47.99;101493.34;4986238;28;20046;-72
2023/05/29 10:56:33;;;;;;;12.05;3.72;;;;;;;22.21;47.91;101496.88;4982157;28;20047;-71
2023/05/29 10:59:01;;;;;;;9.30;3.45;;;;;;;22.20;47.29;101479.38;4974536;28;20034;-72
2023/05/29 11:01:28;;;;;;;10.27;3.97;;;;;;;22.38;47.38;101486.50;4979757;28;20049;-73
2023/05/29 11:04:15;;;;;;;11.82;3.53;;;;;;;22.26;46.90;101489.66;4974117;28;20034;-72
2023/05/29 11:06:41;;;;;;;13.25;4.15;;;;;;;22.16;47.44;101488.34;4974932;28;20054;-72
2023/05/29 11:09:28;;;;;;;14.50;4.28;;;;;;;22.25;47.64;101480.88;4975936;28;20039;-72
2023/05/29 11:12:13;;;;;;;10.18;3.42;;;;;;;22.51;46.78;101474.44;4978894;28;20030;-71
2023/05/29 11:14:54;;;;;;;9.07;3.50;;;;;;;22.49;46.05;101464.91;4972629;28;20096;-71
2023/05/29 11:17:32;;;;;;;15.05;4.25;;;;;;;22.43;46.52;101476.59;4976637;28;20035;-70
2023/05/29 11:20:03;;;;;;;11.32;3.45;;;;;;;22.46;46.67;101471.19;4976250;28;20554;-71